sensor_id;sensor_type;location;lat;lon;timestamp;P1;durP1;ratioP1;P2;durP2;ratioP2
37937;SDS011;23763;48.130;11.602;2022-07-03T00:01:41;9.05;;;8.45;;
37937;SDS011;23763;48.130;11.602;2022-07-03T00:04:07;8.68;;;8.10;;
37937;SDS011;23763;48.130;11.602;2022-07-03T00:06:33;9.20;;;8.60;;
37937;SDS011;23763;48.130;11.602;2022-07-03T00:08:59;9.18;;;8.57;;
37937;SDS011;23763;48.130;11.602;2022-07-03T00:11:27;8.40;;;7.90;;
37937;SDS011;23763;48.130;11.602;2022-07-03T00:13:53;8.93;;;8.32;;
37937;SDS011;23763;48.130;11.602;2022-07-03T00:16:18;8.77;;;8.15;;
37937;SDS011;23763;48.130;11.602;2022-07-03T00:18:45;9.07;;;8.48;;
37937;SDS011;23763;48.130;11.602;2022-07-03T00:21:11;9.88;;;9.07;;
37937;SDS011;23763;48.130;11.602;2022-07-03T00:23:46;8.38;;;7.82;;
37937;SDS011;23763;48.130;11.602;2022-07-03T00:26:18;9.57;;;8.80;;
37937;SDS011;23763;48.130;11.602;2022-07-03T00:28:45;9.82;;;8.93;;
37937;SDS011;23763;48.130;11.602;2022-07-03T00:31:12;8.93;;;8.32;;
37937;SDS011;23763;48.130;11.602;2022-07-03T00:33:38;9.30;;;8.70;;
37937;SDS011;23763;48.130;11.602;2022-07-03T00:36:05;8.68;;;8.07;;
37937;SDS011;23763;48.130;11.602;2022-07-03T00:38:32;9.10;;;8.50;;
37937;SDS011;23763;48.130;11.602;2022-07-03T00:40:58;8.88;;;8.20;;
37937;SDS011;23763;48.130;11.602;2022-07-03T00:43:26;9.05;;;8.48;;
37937;SDS011;23763;48.130;11.602;2022-07-03T00:45:51;8.68;;;8.07;;
37937;SDS011;23763;48.130;11.602;2022-07-03T00:48:19;7.55;;;7.05;;
37937;SDS011;23763;48.130;11.602;2022-07-03T00:50:49;8.63;;;7.90;;
37937;SDS011;23763;48.130;11.602;2022-07-03T00:53:26;8.55;;;8.00;;
37937;SDS011;23763;48.130;11.602;2022-07-03T00:55:53;8.32;;;7.82;;
37937;SDS011;23763;48.130;11.602;2022-07-03T00:58:20;8.55;;;8.07;;
37937;SDS011;23763;48.130;11.602;2022-07-03T01:00:47;8.52;;;8.02;;
37937;SDS011;23763;48.130;11.602;2022-07-03T01:03:16;8.65;;;8.05;;
37937;SDS011;23763;48.130;11.602;2022-07-03T01:05:50;8.98;;;8.38;;
37937;SDS011;23763;48.130;11.602;2022-07-03T01:11:15;8.00;;;7.50;;
37937;SDS011;23763;48.130;11.602;2022-07-03T01:16:37;8.30;;;7.82;;
37937;SDS011;23763;48.130;11.602;2022-07-03T01:22:14;7.75;;;7.25;;
37937;SDS011;23763;48.130;11.602;2022-07-03T01:27:59;8.05;;;7.55;;
37937;SDS011;23763;48.130;11.602;2022-07-03T01:33:17;7.72;;;7.22;;
37937;SDS011;23763;48.130;11.602;2022-07-03T01:36:02;8.05;;;7.60;;
37937;SDS011;23763;48.130;11.602;2022-07-03T01:38:34;8.15;;;7.65;;
37937;SDS011;23763;48.130;11.602;2022-07-03T01:41:03;8.18;;;7.68;;
37937;SDS011;23763;48.130;11.602;2022-07-03T01:43:34;8.43;;;7.75;;
37937;SDS011;23763;48.130;11.602;2022-07-03T01:46:07;8.60;;;8.00;;
37937;SDS011;23763;48.130;11.602;2022-07-03T01:48:33;8.68;;;8.18;;
37937;SDS011;23763;48.130;11.602;2022-07-03T01:50:59;8.45;;;7.75;;
37937;SDS011;23763;48.130;11.602;2022-07-03T01:53:27;8.52;;;7.78;;
37937;SDS011;23763;48.130;11.602;2022-07-03T01:55:55;8.15;;;7.65;;
37937;SDS011;23763;48.130;11.602;2022-07-03T01:58:22;8.38;;;7.85;;
37937;SDS011;23763;48.130;11.602;2022-07-03T02:03:32;7.80;;;7.30;;
37937;SDS011;23763;48.130;11.602;2022-07-03T02:06:08;7.55;;;7.00;;
37937;SDS011;23763;48.130;11.602;2022-07-03T02:08:44;7.57;;;6.85;;
37937;SDS011;23763;48.130;11.602;2022-07-03T02:11:20;7.43;;;6.95;;
37937;SDS011;23763;48.130;11.602;2022-07-03T02:16:25;7.65;;;7.10;;
37937;SDS011;23763;48.130;11.602;2022-07-03T02:19:12;7.90;;;7.40;;
37937;SDS011;23763;48.130;11.602;2022-07-03T02:21:40;7.57;;;7.18;;
37937;SDS011;23763;48.130;11.602;2022-07-03T02:24:16;6.85;;;6.55;;
37937;SDS011;23763;48.130;11.602;2022-07-03T02:26:59;7.22;;;6.75;;
37937;SDS011;23763;48.130;11.602;2022-07-03T02:29:33;7.38;;;6.88;;
37937;SDS011;23763;48.130;11.602;2022-07-03T02:32:06;7.28;;;6.88;;
37937;SDS011;23763;48.130;11.602;2022-07-03T02:34:36;7.43;;;7.03;;
37937;SDS011;23763;48.130;11.602;2022-07-03T02:37:06;7.35;;;6.85;;
37937;SDS011;23763;48.130;11.602;2022-07-03T02:42:06;7.30;;;6.90;;
37937;SDS011;23763;48.130;11.602;2022-07-03T02:44:45;7.25;;;6.80;;
37937;SDS011;23763;48.130;11.602;2022-07-03T02:47:21;7.45;;;6.82;;
37937;SDS011;23763;48.130;11.602;2022-07-03T02:50:10;6.75;;;6.30;;
37937;SDS011;23763;48.130;11.602;2022-07-03T02:52:42;7.07;;;6.70;;
37937;SDS011;23763;48.130;11.602;2022-07-03T02:57:40;7.05;;;6.65;;
37937;SDS011;23763;48.130;11.602;2022-07-03T03:00:08;7.28;;;6.90;;
37937;SDS011;23763;48.130;11.602;2022-07-03T03:10:25;7.18;;;6.45;;
37937;SDS011;23763;48.130;11.602;2022-07-03T03:15:30;6.50;;;6.10;;
37937;SDS011;23763;48.130;11.602;2022-07-03T03:18:00;6.30;;;5.90;;
37937;SDS011;23763;48.130;11.602;2022-07-03T03:20:32;6.43;;;5.93;;
37937;SDS011;23763;48.130;11.602;2022-07-03T03:25:50;7.55;;;7.05;;
37937;SDS011;23763;48.130;11.602;2022-07-03T03:28:17;6.60;;;6.15;;
37937;SDS011;23763;48.130;11.602;2022-07-03T03:30:43;6.53;;;6.10;;
37937;SDS011;23763;48.130;11.602;2022-07-03T03:33:09;6.32;;;5.93;;
37937;SDS011;23763;48.130;11.602;2022-07-03T03:35:36;7.63;;;7.05;;
37937;SDS011;23763;48.130;11.602;2022-07-03T03:38:03;6.75;;;6.45;;
37937;SDS011;23763;48.130;11.602;2022-07-03T03:40:30;7.22;;;6.90;;
37937;SDS011;23763;48.130;11.602;2022-07-03T03:42:57;7.05;;;6.57;;
37937;SDS011;23763;48.130;11.602;2022-07-03T03:45:23;6.70;;;6.30;;
37937;SDS011;23763;48.130;11.602;2022-07-03T03:47:48;7.18;;;6.70;;
37937;SDS011;23763;48.130;11.602;2022-07-03T03:50:14;6.72;;;6.32;;
37937;SDS011;23763;48.130;11.602;2022-07-03T03:52:41;6.93;;;6.63;;
37937;SDS011;23763;48.130;11.602;2022-07-03T03:55:07;6.90;;;6.50;;
37937;SDS011;23763;48.130;11.602;2022-07-03T03:57:36;6.93;;;6.63;;
37937;SDS011;23763;48.130;11.602;2022-07-03T04:00:03;7.00;;;6.63;;
37937;SDS011;23763;48.130;11.602;2022-07-03T04:02:29;6.90;;;6.30;;
37937;SDS011;23763;48.130;11.602;2022-07-03T04:04:55;6.70;;;6.35;;
37937;SDS011;23763;48.130;11.602;2022-07-03T04:07:21;6.78;;;6.30;;
37937;SDS011;23763;48.130;11.602;2022-07-03T04:09:46;6.55;;;6.20;;
37937;SDS011;23763;48.130;11.602;2022-07-03T04:12:12;6.75;;;6.35;;
37937;SDS011;23763;48.130;11.602;2022-07-03T04:14:38;7.35;;;6.93;;
37937;SDS011;23763;48.130;11.602;2022-07-03T04:17:04;6.60;;;6.30;;
37937;SDS011;23763;48.130;11.602;2022-07-03T04:19:29;6.97;;;6.57;;
37937;SDS011;23763;48.130;11.602;2022-07-03T04:21:55;6.75;;;6.40;;
37937;SDS011;23763;48.130;11.602;2022-07-03T04:24:21;6.70;;;6.40;;
37937;SDS011;23763;48.130;11.602;2022-07-03T04:26:47;6.80;;;6.40;;
37937;SDS011;23763;48.130;11.602;2022-07-03T04:29:13;7.13;;;6.55;;
37937;SDS011;23763;48.130;11.602;2022-07-03T04:31:39;6.35;;;6.05;;
37937;SDS011;23763;48.130;11.602;2022-07-03T04:34:05;6.28;;;5.88;;
37937;SDS011;23763;48.130;11.602;2022-07-03T04:36:30;6.85;;;6.45;;
37937;SDS011;23763;48.130;11.602;2022-07-03T04:38:56;6.38;;;6.00;;
37937;SDS011;23763;48.130;11.602;2022-07-03T04:41:22;6.40;;;5.88;;
37937;SDS011;23763;48.130;11.602;2022-07-03T04:43:48;6.40;;;6.10;;
37937;SDS011;23763;48.130;11.602;2022-07-03T04:46:13;6.82;;;6.40;;
37937;SDS011;23763;48.130;11.602;2022-07-03T04:48:39;6.35;;;6.05;;
37937;SDS011;23763;48.130;11.602;2022-07-03T04:51:05;6.22;;;5.93;;
37937;SDS011;23763;48.130;11.602;2022-07-03T04:53:30;6.90;;;6.50;;
37937;SDS011;23763;48.130;11.602;2022-07-03T04:55:56;6.22;;;5.90;;
37937;SDS011;23763;48.130;11.602;2022-07-03T04:58:22;6.32;;;6.03;;
37937;SDS011;23763;48.130;11.602;2022-07-03T05:00:47;6.43;;;6.10;;
37937;SDS011;23763;48.130;11.602;2022-07-03T05:03:13;6.65;;;6.32;;
37937;SDS011;23763;48.130;11.602;2022-07-03T05:05:39;6.43;;;6.13;;
37937;SDS011;23763;48.130;11.602;2022-07-03T05:08:05;6.45;;;5.95;;
37937;SDS011;23763;48.130;11.602;2022-07-03T05:10:30;6.68;;;6.28;;
37937;SDS011;23763;48.130;11.602;2022-07-03T05:12:56;6.28;;;5.88;;
37937;SDS011;23763;48.130;11.602;2022-07-03T05:15:22;6.57;;;6.25;;
37937;SDS011;23763;48.130;11.602;2022-07-03T05:17:48;6.40;;;6.00;;
37937;SDS011;23763;48.130;11.602;2022-07-03T05:20:14;6.15;;;5.70;;
37937;SDS011;23763;48.130;11.602;2022-07-03T05:22:52;6.90;;;6.20;;
37937;SDS011;23763;48.130;11.602;2022-07-03T05:25:23;6.40;;;6.07;;
37937;SDS011;23763;48.130;11.602;2022-07-03T05:27:49;6.75;;;6.28;;
37937;SDS011;23763;48.130;11.602;2022-07-03T05:30:16;6.18;;;5.88;;
37937;SDS011;23763;48.130;11.602;2022-07-03T05:32:42;6.88;;;6.28;;
37937;SDS011;23763;48.130;11.602;2022-07-03T05:35:08;6.13;;;5.70;;
37937;SDS011;23763;48.130;11.602;2022-07-03T05:37:34;6.47;;;5.97;;
37937;SDS011;23763;48.130;11.602;2022-07-03T05:40:00;5.82;;;5.63;;
37937;SDS011;23763;48.130;11.602;2022-07-03T05:42:26;6.22;;;5.93;;
37937;SDS011;23763;48.130;11.602;2022-07-03T05:44:51;6.10;;;5.70;;
37937;SDS011;23763;48.130;11.602;2022-07-03T05:47:17;6.20;;;5.80;;
37937;SDS011;23763;48.130;11.602;2022-07-03T05:49:43;6.22;;;5.93;;
37937;SDS011;23763;48.130;11.602;2022-07-03T05:52:08;6.43;;;6.13;;
37937;SDS011;23763;48.130;11.602;2022-07-03T05:54:34;5.75;;;5.53;;
37937;SDS011;23763;48.130;11.602;2022-07-03T05:57:00;6.60;;;6.30;;
37937;SDS011;23763;48.130;11.602;2022-07-03T05:59:25;6.18;;;5.75;;
37937;SDS011;23763;48.130;11.602;2022-07-03T06:01:51;6.25;;;5.75;;
37937;SDS011;23763;48.130;11.602;2022-07-03T06:04:17;5.90;;;5.70;;
37937;SDS011;23763;48.130;11.602;2022-07-03T06:06:43;6.20;;;5.55;;
37937;SDS011;23763;48.130;11.602;2022-07-03T06:09:08;6.45;;;6.15;;
37937;SDS011;23763;48.130;11.602;2022-07-03T06:11:34;6.85;;;6.45;;
37937;SDS011;23763;48.130;11.602;2022-07-03T06:13:59;6.40;;;6.10;;
37937;SDS011;23763;48.130;11.602;2022-07-03T06:16:25;7.43;;;7.03;;
37937;SDS011;23763;48.130;11.602;2022-07-03T06:18:51;7.40;;;7.00;;
37937;SDS011;23763;48.130;11.602;2022-07-03T06:21:17;6.93;;;6.63;;
37937;SDS011;23763;48.130;11.602;2022-07-03T06:23:42;6.88;;;6.57;;
37937;SDS011;23763;48.130;11.602;2022-07-03T06:26:08;7.57;;;7.20;;
37937;SDS011;23763;48.130;11.602;2022-07-03T06:28:34;7.05;;;6.68;;
37937;SDS011;23763;48.130;11.602;2022-07-03T06:30:59;6.63;;;6.40;;
37937;SDS011;23763;48.130;11.602;2022-07-03T06:33:26;7.18;;;6.88;;
37937;SDS011;23763;48.130;11.602;2022-07-03T06:35:52;6.60;;;6.30;;
37937;SDS011;23763;48.130;11.602;2022-07-03T06:38:18;7.32;;;7.03;;
37937;SDS011;23763;48.130;11.602;2022-07-03T06:40:43;6.95;;;6.63;;
37937;SDS011;23763;48.130;11.602;2022-07-03T06:43:09;7.70;;;7.20;;
37937;SDS011;23763;48.130;11.602;2022-07-03T06:45:35;6.82;;;6.53;;
37937;SDS011;23763;48.130;11.602;2022-07-03T06:48:00;6.53;;;6.30;;
37937;SDS011;23763;48.130;11.602;2022-07-03T06:50:26;7.28;;;6.80;;
37937;SDS011;23763;48.130;11.602;2022-07-03T06:52:52;6.88;;;6.57;;
37937;SDS011;23763;48.130;11.602;2022-07-03T06:55:19;6.88;;;6.57;;
37937;SDS011;23763;48.130;11.602;2022-07-03T06:57:47;6.70;;;6.40;;
37937;SDS011;23763;48.130;11.602;2022-07-03T07:00:12;6.60;;;6.30;;
37937;SDS011;23763;48.130;11.602;2022-07-03T07:02:38;7.00;;;6.70;;
37937;SDS011;23763;48.130;11.602;2022-07-03T07:05:05;7.13;;;6.80;;
37937;SDS011;23763;48.130;11.602;2022-07-03T07:07:31;6.40;;;6.10;;
37937;SDS011;23763;48.130;11.602;2022-07-03T07:09:57;7.32;;;6.97;;
37937;SDS011;23763;48.130;11.602;2022-07-03T07:12:22;7.13;;;6.85;;
37937;SDS011;23763;48.130;11.602;2022-07-03T07:14:48;7.07;;;6.78;;
37937;SDS011;23763;48.130;11.602;2022-07-03T07:17:14;6.90;;;6.45;;
37937;SDS011;23763;48.130;11.602;2022-07-03T07:19:39;6.85;;;6.55;;
37937;SDS011;23763;48.130;11.602;2022-07-03T07:22:05;6.72;;;6.32;;
37937;SDS011;23763;48.130;11.602;2022-07-03T07:24:31;6.50;;;6.30;;
37937;SDS011;23763;48.130;11.602;2022-07-03T07:26:57;6.57;;;6.28;;
37937;SDS011;23763;48.130;11.602;2022-07-03T07:29:22;7.13;;;6.75;;
37937;SDS011;23763;48.130;11.602;2022-07-03T07:31:48;6.88;;;6.47;;
37937;SDS011;23763;48.130;11.602;2022-07-03T07:34:14;7.13;;;6.82;;
37937;SDS011;23763;48.130;11.602;2022-07-03T07:36:39;7.05;;;6.75;;
37937;SDS011;23763;48.130;11.602;2022-07-03T07:39:05;6.82;;;6.63;;
37937;SDS011;23763;48.130;11.602;2022-07-03T07:41:31;7.38;;;7.07;;
37937;SDS011;23763;48.130;11.602;2022-07-03T07:43:57;7.10;;;6.80;;
37937;SDS011;23763;48.130;11.602;2022-07-03T07:46:23;7.13;;;6.78;;
37937;SDS011;23763;48.130;11.602;2022-07-03T07:48:49;6.82;;;6.50;;
37937;SDS011;23763;48.130;11.602;2022-07-03T07:51:14;7.55;;;7.13;;
37937;SDS011;23763;48.130;11.602;2022-07-03T07:53:41;7.53;;;7.05;;
37937;SDS011;23763;48.130;11.602;2022-07-03T07:56:07;7.18;;;6.90;;
37937;SDS011;23763;48.130;11.602;2022-07-03T07:58:32;7.22;;;6.85;;
37937;SDS011;23763;48.130;11.602;2022-07-03T08:00:58;6.82;;;6.53;;
37937;SDS011;23763;48.130;11.602;2022-07-03T08:03:42;7.00;;;6.60;;
37937;SDS011;23763;48.130;11.602;2022-07-03T08:06:26;7.10;;;6.68;;
37937;SDS011;23763;48.130;11.602;2022-07-03T08:08:52;6.93;;;6.63;;
37937;SDS011;23763;48.130;11.602;2022-07-03T08:11:17;6.85;;;6.60;;
37937;SDS011;23763;48.130;11.602;2022-07-03T08:13:43;6.72;;;6.43;;
37937;SDS011;23763;48.130;11.602;2022-07-03T08:16:11;6.53;;;6.32;;
37937;SDS011;23763;48.130;11.602;2022-07-03T08:18:37;7.07;;;6.70;;
37937;SDS011;23763;48.130;11.602;2022-07-03T08:21:03;6.90;;;6.45;;
37937;SDS011;23763;48.130;11.602;2022-07-03T08:23:29;6.95;;;6.60;;
37937;SDS011;23763;48.130;11.602;2022-07-03T08:25:54;6.78;;;6.47;;
37937;SDS011;23763;48.130;11.602;2022-07-03T08:28:20;6.72;;;6.53;;
37937;SDS011;23763;48.130;11.602;2022-07-03T08:30:46;7.50;;;7.10;;
37937;SDS011;23763;48.130;11.602;2022-07-03T08:33:12;6.93;;;6.63;;
37937;SDS011;23763;48.130;11.602;2022-07-03T08:35:37;6.60;;;6.22;;
37937;SDS011;23763;48.130;11.602;2022-07-03T08:38:03;6.40;;;6.10;;
37937;SDS011;23763;48.130;11.602;2022-07-03T08:40:29;6.65;;;6.25;;
37937;SDS011;23763;48.130;11.602;2022-07-03T08:42:57;7.22;;;6.80;;
37937;SDS011;23763;48.130;11.602;2022-07-03T08:45:28;6.90;;;6.60;;
37937;SDS011;23763;48.130;11.602;2022-07-03T08:47:56;6.60;;;6.30;;
37937;SDS011;23763;48.130;11.602;2022-07-03T08:50:23;6.90;;;6.60;;
37937;SDS011;23763;48.130;11.602;2022-07-03T08:52:49;6.63;;;6.43;;
37937;SDS011;23763;48.130;11.602;2022-07-03T08:55:15;6.78;;;6.47;;
37937;SDS011;23763;48.130;11.602;2022-07-03T08:57:42;6.47;;;6.18;;
37937;SDS011;23763;48.130;11.602;2022-07-03T09:00:10;6.90;;;6.60;;
37937;SDS011;23763;48.130;11.602;2022-07-03T09:02:38;7.05;;;6.85;;
37937;SDS011;23763;48.130;11.602;2022-07-03T09:05:07;6.22;;;6.03;;
37937;SDS011;23763;48.130;11.602;2022-07-03T09:07:37;6.28;;;6.03;;
37937;SDS011;23763;48.130;11.602;2022-07-03T09:10:08;6.90;;;6.70;;
37937;SDS011;23763;48.130;11.602;2022-07-03T09:12:35;6.80;;;6.50;;
37937;SDS011;23763;48.130;11.602;2022-07-03T09:15:02;6.90;;;6.57;;
37937;SDS011;23763;48.130;11.602;2022-07-03T09:17:30;6.40;;;6.07;;
37937;SDS011;23763;48.130;11.602;2022-07-03T09:20:00;6.93;;;6.68;;
37937;SDS011;23763;48.130;11.602;2022-07-03T09:22:29;6.93;;;6.63;;
37937;SDS011;23763;48.130;11.602;2022-07-03T09:25:12;7.00;;;6.70;;
37937;SDS011;23763;48.130;11.602;2022-07-03T09:27:51;6.75;;;6.45;;
37937;SDS011;23763;48.130;11.602;2022-07-03T09:30:18;7.05;;;6.60;;
37937;SDS011;23763;48.130;11.602;2022-07-03T09:32:45;7.00;;;6.70;;
37937;SDS011;23763;48.130;11.602;2022-07-03T09:35:23;6.60;;;6.25;;
37937;SDS011;23763;48.130;11.602;2022-07-03T09:38:00;6.47;;;6.28;;
37937;SDS011;23763;48.130;11.602;2022-07-03T09:43:12;6.82;;;6.53;;
37937;SDS011;23763;48.130;11.602;2022-07-03T09:48:34;6.40;;;6.10;;
37937;SDS011;23763;48.130;11.602;2022-07-03T09:53:57;6.93;;;6.72;;
37937;SDS011;23763;48.130;11.602;2022-07-03T09:56:28;6.95;;;6.65;;
37937;SDS011;23763;48.130;11.602;2022-07-03T10:01:34;6.47;;;6.28;;
37937;SDS011;23763;48.130;11.602;2022-07-03T10:09:31;6.90;;;6.60;;
37937;SDS011;23763;48.130;11.602;2022-07-03T10:11:58;6.68;;;6.38;;
37937;SDS011;23763;48.130;11.602;2022-07-03T10:14:26;6.45;;;6.10;;
37937;SDS011;23763;48.130;11.602;2022-07-03T10:16:53;6.57;;;6.38;;
37937;SDS011;23763;48.130;11.602;2022-07-03T10:19:35;6.55;;;6.25;;
37937;SDS011;23763;48.130;11.602;2022-07-03T10:22:06;6.53;;;6.20;;
37937;SDS011;23763;48.130;11.602;2022-07-03T10:24:40;6.60;;;6.35;;
37937;SDS011;23763;48.130;11.602;2022-07-03T10:27:07;6.43;;;6.22;;
37937;SDS011;23763;48.130;11.602;2022-07-03T10:29:33;6.78;;;6.47;;
37937;SDS011;23763;48.130;11.602;2022-07-03T10:32:01;6.25;;;6.05;;
37937;SDS011;23763;48.130;11.602;2022-07-03T10:34:30;6.43;;;6.22;;
37937;SDS011;23763;48.130;11.602;2022-07-03T10:37:00;6.80;;;6.60;;
37937;SDS011;23763;48.130;11.602;2022-07-03T10:43:12;6.82;;;6.53;;
37937;SDS011;23763;48.130;11.602;2022-07-03T10:46:08;6.72;;;6.32;;
37937;SDS011;23763;48.130;11.602;2022-07-03T10:51:30;6.40;;;6.20;;
37937;SDS011;23763;48.130;11.602;2022-07-03T10:54:13;6.25;;;6.05;;
37937;SDS011;23763;48.130;11.602;2022-07-03T11:07:35;6.88;;;6.47;;
37937;SDS011;23763;48.130;11.602;2022-07-03T11:15:50;6.78;;;6.57;;
37937;SDS011;23763;48.130;11.602;2022-07-03T11:18:21;6.60;;;6.35;;
37937;SDS011;23763;48.130;11.602;2022-07-03T11:28:51;6.35;;;6.15;;
37937;SDS011;23763;48.130;11.602;2022-07-03T11:31:19;6.55;;;6.25;;
37937;SDS011;23763;48.130;11.602;2022-07-03T11:38:42;6.35;;;6.15;;
37937;SDS011;23763;48.130;11.602;2022-07-03T11:41:09;6.55;;;6.35;;
37937;SDS011;23763;48.130;11.602;2022-07-03T11:43:36;7.30;;;7.00;;
37937;SDS011;23763;48.130;11.602;2022-07-03T11:46:03;6.88;;;6.57;;
37937;SDS011;23763;48.130;11.602;2022-07-03T11:48:30;6.70;;;6.40;;
37937;SDS011;23763;48.130;11.602;2022-07-03T11:51:00;6.50;;;6.20;;
37937;SDS011;23763;48.130;11.602;2022-07-03T11:55:58;6.82;;;6.38;;
37937;SDS011;23763;48.130;11.602;2022-07-03T11:58:45;6.32;;;6.00;;
37937;SDS011;23763;48.130;11.602;2022-07-03T12:04:09;6.10;;;5.90;;
37937;SDS011;23763;48.130;11.602;2022-07-03T12:06:34;6.70;;;6.40;;
37937;SDS011;23763;48.130;11.602;2022-07-03T12:09:02;6.80;;;6.50;;
37937;SDS011;23763;48.130;11.602;2022-07-03T12:11:36;6.90;;;6.60;;
37937;SDS011;23763;48.130;11.602;2022-07-03T12:14:02;6.63;;;6.43;;
37937;SDS011;23763;48.130;11.602;2022-07-03T12:16:32;6.55;;;6.25;;
37937;SDS011;23763;48.130;11.602;2022-07-03T12:19:02;6.47;;;6.28;;
37937;SDS011;23763;48.130;11.602;2022-07-03T12:21:34;6.80;;;6.50;;
37937;SDS011;23763;48.130;11.602;2022-07-03T12:24:08;7.00;;;6.70;;
37937;SDS011;23763;48.130;11.602;2022-07-03T12:26:35;7.55;;;7.10;;
37937;SDS011;23763;48.130;11.602;2022-07-03T12:29:02;6.95;;;6.65;;
37937;SDS011;23763;48.130;11.602;2022-07-03T12:31:38;7.22;;;6.93;;
37937;SDS011;23763;48.130;11.602;2022-07-03T12:34:05;7.07;;;6.75;;
37937;SDS011;23763;48.130;11.602;2022-07-03T12:36:31;6.90;;;6.60;;
37937;SDS011;23763;48.130;11.602;2022-07-03T12:38:57;7.20;;;6.90;;
37937;SDS011;23763;48.130;11.602;2022-07-03T12:41:25;7.45;;;7.15;;
37937;SDS011;23763;48.130;11.602;2022-07-03T12:43:51;7.20;;;6.90;;
37937;SDS011;23763;48.130;11.602;2022-07-03T12:51:35;7.75;;;7.35;;
37937;SDS011;23763;48.130;11.602;2022-07-03T12:54:09;7.22;;;6.93;;
37937;SDS011;23763;48.130;11.602;2022-07-03T12:57:10;7.35;;;7.05;;
37937;SDS011;23763;48.130;11.602;2022-07-03T13:02:43;6.78;;;6.47;;
37937;SDS011;23763;48.130;11.602;2022-07-03T13:07:42;6.78;;;6.38;;
37937;SDS011;23763;48.130;11.602;2022-07-03T13:10:10;6.90;;;6.70;;
37937;SDS011;23763;48.130;11.602;2022-07-03T13:15:14;7.70;;;7.40;;
37937;SDS011;23763;48.130;11.602;2022-07-03T13:20:34;7.13;;;6.75;;
37937;SDS011;23763;48.130;11.602;2022-07-03T13:23:00;7.40;;;6.90;;
37937;SDS011;23763;48.130;11.602;2022-07-03T13:25:28;7.45;;;7.05;;
37937;SDS011;23763;48.130;11.602;2022-07-03T13:30:37;7.07;;;6.78;;
37937;SDS011;23763;48.130;11.602;2022-07-03T13:33:05;7.13;;;6.82;;
37937;SDS011;23763;48.130;11.602;2022-07-03T13:35:31;7.55;;;7.25;;
37937;SDS011;23763;48.130;11.602;2022-07-03T13:37:58;7.53;;;7.22;;
37937;SDS011;23763;48.130;11.602;2022-07-03T13:40:23;7.20;;;6.70;;
37937;SDS011;23763;48.130;11.602;2022-07-03T13:42:49;6.22;;;5.90;;
37937;SDS011;23763;48.130;11.602;2022-07-03T13:45:15;7.00;;;6.60;;
37937;SDS011;23763;48.130;11.602;2022-07-03T13:47:41;6.55;;;6.20;;
37937;SDS011;23763;48.130;11.602;2022-07-03T13:50:07;6.65;;;6.28;;
37937;SDS011;23763;48.130;11.602;2022-07-03T13:52:34;6.55;;;6.25;;
37937;SDS011;23763;48.130;11.602;2022-07-03T13:55:00;6.18;;;5.90;;
37937;SDS011;23763;48.130;11.602;2022-07-03T13:57:25;6.45;;;6.07;;
37937;SDS011;23763;48.130;11.602;2022-07-03T13:59:51;6.90;;;6.32;;
37937;SDS011;23763;48.130;11.602;2022-07-03T14:02:17;6.05;;;5.70;;
37937;SDS011;23763;48.130;11.602;2022-07-03T14:04:42;6.93;;;6.43;;
37937;SDS011;23763;48.130;11.602;2022-07-03T14:07:08;6.70;;;6.40;;
37937;SDS011;23763;48.130;11.602;2022-07-03T14:09:34;6.57;;;6.22;;
37937;SDS011;23763;48.130;11.602;2022-07-03T14:12:00;7.22;;;6.63;;
37937;SDS011;23763;48.130;11.602;2022-07-03T14:14:26;7.05;;;6.75;;
37937;SDS011;23763;48.130;11.602;2022-07-03T14:16:51;7.78;;;7.22;;
37937;SDS011;23763;48.130;11.602;2022-07-03T14:19:18;6.85;;;6.38;;
37937;SDS011;23763;48.130;11.602;2022-07-03T14:21:45;6.68;;;6.38;;
37937;SDS011;23763;48.130;11.602;2022-07-03T14:24:11;7.18;;;6.70;;
37937;SDS011;23763;48.130;11.602;2022-07-03T14:26:36;6.97;;;6.68;;
37937;SDS011;23763;48.130;11.602;2022-07-03T14:29:21;6.50;;;6.25;;
37937;SDS011;23763;48.130;11.602;2022-07-03T14:32:05;6.60;;;6.03;;
37937;SDS011;23763;48.130;11.602;2022-07-03T14:34:49;6.30;;;5.97;;
37937;SDS011;23763;48.130;11.602;2022-07-03T14:37:15;6.97;;;6.63;;
37937;SDS011;23763;48.130;11.602;2022-07-03T14:39:44;7.50;;;7.03;;
37937;SDS011;23763;48.130;11.602;2022-07-03T14:42:10;7.15;;;6.75;;
37937;SDS011;23763;48.130;11.602;2022-07-03T14:44:36;6.30;;;6.00;;
37937;SDS011;23763;48.130;11.602;2022-07-03T14:47:02;7.45;;;6.97;;
37937;SDS011;23763;48.130;11.602;2022-07-03T14:49:28;7.50;;;7.05;;
37937;SDS011;23763;48.130;11.602;2022-07-03T14:51:56;6.70;;;6.40;;
37937;SDS011;23763;48.130;11.602;2022-07-03T14:54:29;7.63;;;7.13;;
37937;SDS011;23763;48.130;11.602;2022-07-03T14:56:57;7.30;;;6.90;;
37937;SDS011;23763;48.130;11.602;2022-07-03T15:02:20;6.53;;;6.25;;
37937;SDS011;23763;48.130;11.602;2022-07-03T15:04:58;7.63;;;7.22;;
37937;SDS011;23763;48.130;11.602;2022-07-03T15:07:34;7.32;;;6.85;;
37937;SDS011;23763;48.130;11.602;2022-07-03T15:10:11;7.30;;;6.97;;
37937;SDS011;23763;48.130;11.602;2022-07-03T15:12:40;7.38;;;6.97;;
37937;SDS011;23763;48.130;11.602;2022-07-03T15:15:08;7.68;;;7.18;;
37937;SDS011;23763;48.130;11.602;2022-07-03T15:17:36;7.32;;;6.93;;
37937;SDS011;23763;48.130;11.602;2022-07-03T15:20:03;7.13;;;6.72;;
37937;SDS011;23763;48.130;11.602;2022-07-03T15:22:30;7.90;;;7.40;;
37937;SDS011;23763;48.130;11.602;2022-07-03T15:24:57;6.88;;;6.57;;
37937;SDS011;23763;48.130;11.602;2022-07-03T15:27:24;7.07;;;6.78;;
37937;SDS011;23763;48.130;11.602;2022-07-03T15:29:52;7.22;;;6.82;;
37937;SDS011;23763;48.130;11.602;2022-07-03T15:32:18;7.00;;;6.60;;
37937;SDS011;23763;48.130;11.602;2022-07-03T15:34:44;7.03;;;6.65;;
37937;SDS011;23763;48.130;11.602;2022-07-03T15:40:23;7.65;;;7.05;;
37937;SDS011;23763;48.130;11.602;2022-07-03T15:48:10;7.30;;;6.75;;
37937;SDS011;23763;48.130;11.602;2022-07-03T15:53:33;7.38;;;6.97;;
37937;SDS011;23763;48.130;11.602;2022-07-03T15:56:02;8.00;;;7.60;;
37937;SDS011;23763;48.130;11.602;2022-07-03T15:58:30;7.13;;;6.72;;
37937;SDS011;23763;48.130;11.602;2022-07-03T16:00:58;7.50;;;7.10;;
37937;SDS011;23763;48.130;11.602;2022-07-03T16:03:52;6.95;;;6.57;;
37937;SDS011;23763;48.130;11.602;2022-07-03T16:06:32;7.95;;;7.35;;
37937;SDS011;23763;48.130;11.602;2022-07-03T16:08:59;7.50;;;7.15;;
37937;SDS011;23763;48.130;11.602;2022-07-03T16:11:24;7.63;;;7.22;;
37937;SDS011;23763;48.130;11.602;2022-07-03T16:13:50;7.03;;;6.68;;
37937;SDS011;23763;48.130;11.602;2022-07-03T16:16:20;7.70;;;7.20;;
37937;SDS011;23763;48.130;11.602;2022-07-03T16:18:46;7.05;;;6.75;;
37937;SDS011;23763;48.130;11.602;2022-07-03T16:21:15;7.10;;;6.60;;
37937;SDS011;23763;48.130;11.602;2022-07-03T16:23:43;8.10;;;7.60;;
37937;SDS011;23763;48.130;11.602;2022-07-03T16:26:10;7.82;;;7.43;;
37937;SDS011;23763;48.130;11.602;2022-07-03T16:28:36;7.22;;;6.82;;
37937;SDS011;23763;48.130;11.602;2022-07-03T16:31:05;7.47;;;7.13;;
37937;SDS011;23763;48.130;11.602;2022-07-03T16:33:35;7.50;;;7.10;;
37937;SDS011;23763;48.130;11.602;2022-07-03T16:36:08;8.15;;;7.28;;
37937;SDS011;23763;48.130;11.602;2022-07-03T16:38:40;7.68;;;7.28;;
37937;SDS011;23763;48.130;11.602;2022-07-03T16:41:12;7.40;;;7.00;;
37937;SDS011;23763;48.130;11.602;2022-07-03T16:43:40;7.60;;;7.22;;
37937;SDS011;23763;48.130;11.602;2022-07-03T16:46:09;8.02;;;7.43;;
37937;SDS011;23763;48.130;11.602;2022-07-03T16:48:38;7.90;;;7.50;;
37937;SDS011;23763;48.130;11.602;2022-07-03T16:51:11;7.65;;;7.18;;